Time;durP1;ratioP1;P1;durP2;ratioP2;P2;SDS_P1;SDS_P2;PMS_P1;PMS_P2;Temp;Humidity;BMP_temperature;BMP_pressure;BME280_temperature;BME280_humidity;BME280_pressure;Samples;Min_cycle;Max_cycle;Signal;HPM_P1;HPM_P2
2022/05/25 00:02:22;;;;;;;11.25;5.28;;;9.80;99.90;;;;;;4959908;28;20047;-82
2022/05/25 00:04:49;;;;;;;9.93;5.57;;;9.80;99.90;;;;;;4957719;29;20178;-79
2022/05/25 00:07:16;;;;;;;8.50;5.20;;;9.80;99.90;;;;;;4956921;29;20152;-80
2022/05/25 00:09:42;;;;;;;;;;;9.80;99.90;;;;;;4960771;28;20047;-79
2022/05/25 00:12:09;;;;;;;13.50;5.17;;;9.80;99.90;;;;;;4960685;28;20274;-82
2022/05/25 00:14:35;;;;;;;8.50;5.13;;;9.70;99.90;;;;;;4959921;29;20047;-81
2022/05/25 00:17:02;;;;;;;9.70;6.30;;;9.70;99.90;;;;;;4959370;29;20055;-81
2022/05/25 00:22:12;;;;;;;12.32;6.18;;;9.70;99.90;;;;;;4957550;29;20047;-78
2022/05/25 00:24:37;;;;;;;10.60;5.88;;;9.70;99.90;;;;;;4940943;29;20470;-79
2022/05/25 00:27:03;;;;;;;9.80;6.07;;;9.60;99.90;;;;;;4958208;29;20468;-78
2022/05/25 00:29:29;;;;;;;10.43;6.38;;;9.60;99.90;;;;;;4956266;28;20586;-81
2022/05/25 00:31:55;;;;;;;11.15;6.40;;;9.60;99.90;;;;;;4972852;28;20083;-79
2022/05/25 00:34:20;;;;;;;9.98;5.97;;;9.60;99.90;;;;;;4956695;29;20384;-79
2022/05/25 00:36:46;;;;;;;9.40;5.97;;;9.50;99.90;;;;;;4956854;29;20551;-79
2022/05/25 00:39:12;;;;;;;9.45;5.88;;;9.60;99.90;;;;;;4956453;29;20038;-80
2022/05/25 00:41:38;;;;;;;10.80;6.45;;;9.60;99.90;;;;;;4958101;29;20074;-80
2022/05/25 00:44:05;;;;;;;14.70;6.80;;;9.60;99.90;;;;;;4957504;28;20172;-78
2022/05/25 00:46:32;;;;;;;;;;;9.60;99.90;;;;;;4958162;29;20062;-80
2022/05/25 00:49:28;;;;;;;10.20;6.00;;;9.60;99.90;;;;;;4957106;29;19985;-82
2022/05/25 00:52:02;;;;;;;10.82;6.40;;;9.60;99.90;;;;;;4939577;29;20051;-79
2022/05/25 00:54:32;;;;;;;13.10;6.50;;;9.60;99.90;;;;;;4958200;28;20040;-81
2022/05/25 00:57:04;;;;;;;11.95;6.97;;;9.50;99.90;;;;;;4958161;29;20081;-80
2022/05/25 00:59:33;;;;;;;12.43;6.65;;;9.50;99.90;;;;;;4958122;28;20043;-81
2022/05/25 01:01:59;;;;;;;12.93;7.20;;;9.50;99.90;;;;;;4958750;28;20102;-80
2022/05/25 01:04:26;;;;;;;13.60;7.20;;;9.50;99.90;;;;;;4958474;29;20138;-79
2022/05/25 01:07:16;;;;;;;13.38;7.55;;;9.50;99.90;;;;;;4958378;28;20043;-80
2022/05/25 01:10:03;;;;;;;13.52;7.38;;;9.50;99.90;;;;;;4959416;28;20467;-82
2022/05/25 01:12:29;;;;;;;12.45;7.10;;;9.50;99.90;;;;;;4958394;28;20051;-80
2022/05/25 01:15:19;;;;;;;13.15;7.35;;;9.60;99.90;;;;;;4956831;29;20543;-79
2022/05/25 01:17:45;;;;;;;15.57;7.43;;;9.60;99.90;;;;;;4956631;29;20055;-80
2022/05/25 01:20:38;;;;;;;16.30;7.60;;;9.50;99.90;;;;;;4956081;29;20361;-79
2022/05/25 01:23:16;;;;;;;13.10;7.40;;;9.50;99.90;;;;;;4953933;28;20062;-78
2022/05/25 01:25:53;;;;;;;15.20;8.07;;;9.50;99.90;;;;;;4958435;28;20047;-79
2022/05/25 01:28:38;;;;;;;15.32;7.85;;;9.50;99.90;;;;;;4973668;28;20047;-83
2022/05/25 01:31:09;;;;;;;18.95;9.07;;;9.40;99.90;;;;;;4960013;28;20053;-81
2022/05/25 01:33:52;;;;;;;15.02;8.02;;;9.40;99.90;;;;;;4957197;29;20055;-80
2022/05/25 01:37:08;;;;;;;14.43;8.10;;;9.40;99.90;;;;;;4956248;29;20109;-83
2022/05/25 01:39:41;;;;;;;17.30;7.95;;;9.40;99.90;;;;;;4956557;29;20058;-80
2022/05/25 01:42:15;;;;;;;15.10;8.13;;;9.40;99.90;;;;;;4957980;29;20442;-79
2022/05/25 01:45:08;;;;;;;13.98;8.18;;;9.40;99.90;;;;;;4957598;29;20055;-82
2022/05/25 01:47:37;;;;;;;14.55;8.02;;;9.40;99.90;;;;;;4955203;29;20459;-80
2022/05/25 01:50:09;;;;;;;15.55;9.20;;;9.40;99.90;;;;;;4956817;28;20541;-81
2022/05/25 01:52:45;;;;;;;16.92;9.13;;;9.40;99.90;;;;;;4956994;28;20059;-81
2022/05/25 01:55:38;;;;;;;19.42;9.45;;;9.40;99.90;;;;;;4956886;29;20046;-81
2022/05/25 01:58:11;;;;;;;17.17;8.52;;;9.40;99.90;;;;;;4955030;29;20098;-79
2022/05/25 02:00:40;;;;;;;18.20;9.02;;;9.40;99.90;;;;;;4957714;29;20055;-80
2022/05/25 02:06:00;;;;;;;17.00;8.95;;;9.40;99.90;;;;;;4956298;29;20051;-82
2022/05/25 02:08:47;;;;;;;21.65;9.50;;;9.40;99.90;;;;;;4956194;29;20055;-79
2022/05/25 02:11:38;;;;;;;18.45;9.65;;;9.40;99.90;;;;;;4956881;28;20460;-85
2022/05/25 02:14:07;;;;;;;17.77;9.55;;;9.40;99.90;;;;;;4956831;29;20054;-81
2022/05/25 02:17:02;;;;;;;17.77;9.18;;;9.40;99.90;;;;;;4957184;29;20047;-80
2022/05/25 02:19:35;;;;;;;17.27;8.73;;;9.40;99.90;;;;;;4952012;28;20051;-82
2022/05/25 02:22:11;;;;;;;19.85;10.02;;;9.40;99.90;;;;;;4956893;28;20055;-85
2022/05/25 02:24:42;;;;;;;19.17;9.38;;;9.40;99.90;;;;;;4957314;28;20043;-79
2022/05/25 02:27:24;;;;;;;19.90;10.20;;;9.30;99.90;;;;;;4956550;29;20051;-83
2022/05/25 02:29:56;;;;;;;17.13;9.30;;;9.40;99.90;;;;;;4958317;28;20138;-81
2022/05/25 02:32:43;;;;;;;20.42;10.48;;;9.30;99.90;;;;;;4956852;29;20047;-84
2022/05/25 02:35:11;;;;;;;19.35;10.18;;;9.30;99.90;;;;;;4956686;29;20043;-83
2022/05/25 02:37:37;;;;;;;20.60;10.18;;;9.30;99.90;;;;;;4956236;28;20175;-81
2022/05/25 02:40:07;;;;;;;18.90;9.70;;;9.30;99.90;;;;;;4958573;29;20059;-81
2022/05/25 02:42:32;;;;;;;19.50;10.55;;;9.30;99.90;;;;;;4958117;28;20051;-80
2022/05/25 02:44:58;;;;;;;20.85;10.93;;;9.20;99.90;;;;;;4957880;28;20046;-81
2022/05/25 02:47:24;;;;;;;21.15;9.93;;;9.20;99.90;;;;;;4955823;29;20110;-78
2022/05/25 02:49:50;;;;;;;22.15;10.75;;;9.20;99.90;;;;;;4956378;29;20329;-79
2022/05/25 02:52:15;;;;;;;17.90;10.40;;;9.20;99.90;;;;;;4955116;28;20047;-79
2022/05/25 02:54:41;;;;;;;22.42;10.65;;;9.10;99.90;;;;;;4955027;29;20051;-83
2022/05/25 02:57:08;;;;;;;20.23;10.57;;;9.10;99.90;;;;;;4956742;28;20062;-81
2022/05/25 02:59:34;;;;;;;19.45;10.90;;;9.00;99.90;;;;;;4958863;28;20349;-84
2022/05/25 03:02:02;;;;;;;20.25;10.70;;;9.00;99.90;;;;;;4955820;29;20055;-81
2022/05/25 03:04:28;;;;;;;19.23;10.18;;;9.00;99.90;;;;;;4955591;28;20047;-83
2022/05/25 03:06:54;;;;;;;18.20;9.67;;;8.90;99.90;;;;;;4956316;28;20046;-80
2022/05/25 03:09:20;;;;;;;21.95;10.88;;;8.90;99.90;;;;;;4954932;29;20050;-82
2022/05/25 03:11:45;;;;;;;20.38;10.43;;;9.00;99.90;;;;;;4955937;29;20043;-82
2022/05/25 03:14:11;;;;;;;23.25;10.63;;;8.90;99.90;;;;;;4955817;28;20082;-80
2022/05/25 03:16:37;;;;;;;19.35;10.60;;;8.90;99.90;;;;;;4954753;29;20043;-81
2022/05/25 03:19:02;;;;;;;19.77;10.77;;;8.90;99.90;;;;;;4954777;29;20399;-81
2022/05/25 03:21:28;;;;;;;23.35;11.63;;;8.90;99.90;;;;;;4954306;29;20051;-81
2022/05/25 03:23:54;;;;;;;21.20;11.27;;;8.90;99.90;;;;;;4955498;28;20142;-83
2022/05/25 03:26:20;;;;;;;19.17;10.20;;;8.80;99.90;;;;;;4955392;29;20527;-80
2022/05/25 03:28:45;;;;;;;20.13;11.15;;;8.80;99.90;;;;;;4954187;29;20047;-83
2022/05/25 03:31:11;;;;;;;26.48;11.43;;;8.80;99.90;;;;;;4958006;28;20134;-79
2022/05/25 03:33:38;;;;;;;24.77;11.57;;;8.80;99.90;;;;;;4954477;28;20106;-81
2022/05/25 03:36:03;;;;;;;25.95;11.68;;;8.80;99.90;;;;;;4956240;29;20133;-82
2022/05/25 03:38:30;;;;;;;23.20;11.70;;;8.80;99.90;;;;;;4955323;29;20474;-80
2022/05/25 03:40:57;;;;;;;23.23;11.15;;;8.80;99.90;;;;;;4953497;29;20101;-80
2022/05/25 03:43:28;;;;;;;21.77;11.48;;;8.80;99.90;;;;;;4955299;29;20062;-79
2022/05/25 03:45:54;;;;;;;21.30;11.05;;;8.80;99.90;;;;;;4957920;28;20114;-79
2022/05/25 03:48:19;;;;;;;23.65;11.02;;;8.80;99.90;;;;;;4957993;29;20133;-81
2022/05/25 03:50:46;;;;;;;23.75;11.68;;;8.80;99.90;;;;;;4959565;28;20150;-79
2022/05/25 03:53:12;;;;;;;25.58;12.25;;;8.90;99.90;;;;;;4957380;29;20483;-81
2022/05/25 03:55:38;;;;;;;25.92;11.75;;;8.90;99.90;;;;;;4972607;28;20521;-83
2022/05/25 03:58:04;;;;;;;23.08;12.23;;;8.90;99.90;;;;;;4956670;29;20049;-84
2022/05/25 04:00:31;;;;;;;25.20;12.70;;;8.90;99.90;;;;;;4954582;29;20042;-83
2022/05/25 04:02:59;;;;;;;24.00;12.32;;;9.00;99.90;;;;;;4955152;29;20051;-82
2022/05/25 04:05:26;;;;;;;26.27;11.80;;;9.20;99.90;;;;;;4956605;28;20090;-79
2022/05/25 04:07:55;;;;;;;25.27;11.75;;;9.30;99.90;;;;;;4956149;29;20052;-81
2022/05/25 04:10:21;;;;;;;23.63;12.85;;;9.30;99.90;;;;;;4957110;29;20082;-80
2022/05/25 04:12:47;;;;;;;24.45;13.20;;;9.40;99.90;;;;;;4957309;28;20170;-81
2022/05/25 04:15:17;;;;;;;21.63;12.05;;;9.40;99.90;;;;;;4957741;28;20137;-81
2022/05/25 04:17:43;;;;;;;25.75;12.90;;;9.40;99.90;;;;;;4957551;28;20126;-86
2022/05/25 04:20:10;;;;;;;24.77;12.48;;;9.50;99.90;;;;;;4955669;29;20107;-85
2022/05/25 04:22:36;;;;;;;23.00;13.48;;;9.50;99.90;;;;;;4954603;29;20055;-81
2022/05/25 04:25:10;;;;;;;28.85;14.13;;;9.60;99.90;;;;;;4954259;29;20322;-82
2022/05/25 04:27:37;;;;;;;28.95;13.95;;;9.60;99.90;;;;;;4955983;28;20453;-81
2022/05/25 04:30:03;;;;;;;;;;;9.70;99.90;;;;;;4956630;29;20435;-81
2022/05/25 04:32:29;;;;;;;22.40;12.13;;;9.80;99.90;;;;;;4953960;29;19969;-84
2022/05/25 04:34:57;;;;;;;22.80;11.60;;;9.80;99.90;;;;;;4971137;28;20078;-85
2022/05/25 04:40:07;;;;;;;24.02;12.25;;;9.90;99.90;;;;;;4954056;29;20083;-85
2022/05/25 04:42:33;;;;;;;27.53;13.43;;;9.90;99.90;;;;;;4955442;29;20048;-84
2022/05/25 04:45:00;;;;;;;25.25;13.27;;;10.00;99.90;;;;;;4956490;28;20664;-84
2022/05/25 04:47:27;;;;;;;;;;;10.10;99.90;;;;;;4959216;29;20407;-86
2022/05/25 04:49:53;;;;;;;;;;;10.20;99.90;;;;;;4960983;28;20320;-81
2022/05/25 04:52:18;;;;;;;23.93;10.63;;;10.20;99.90;;;;;;4958916;28;19922;-85
2022/05/25 04:54:44;;;;;;;24.92;11.68;;;10.20;99.90;;;;;;4960042;29;20448;-83
2022/05/25 04:57:27;;;;;;;25.23;11.52;;;10.30;99.90;;;;;;4959635;28;20376;-84
2022/05/25 04:59:58;;;;;;;26.65;12.70;;;10.30;99.90;;;;;;4959064;29;20502;-82
2022/05/25 05:02:25;;;;;;;22.70;12.55;;;10.40;99.90;;;;;;4940998;29;20090;-82
2022/05/25 05:04:51;;;;;;;23.80;12.25;;;10.50;99.90;;;;;;4958656;28;20043;-81
2022/05/25 05:07:17;;;;;;;24.17;12.80;;;10.50;99.90;;;;;;4957140;29;20043;-81
2022/05/25 05:09:45;;;;;;;25.23;11.95;;;10.50;99.90;;;;;;4958315;29;20054;-84
2022/05/25 05:12:12;;;;;;;27.55;13.50;;;10.60;99.90;;;;;;4957672;28;20134;-81
2022/05/25 05:14:38;;;;;;;25.40;12.75;;;10.60;99.90;;;;;;4957928;29;20040;-86
2022/05/25 05:17:06;;;;;;;27.50;12.90;;;10.60;99.90;;;;;;4958026;28;20058;-81
2022/05/25 05:19:33;;;;;;;25.55;13.25;;;10.70;99.90;;;;;;4958072;28;20067;-79
2022/05/25 05:21:59;;;;;;;26.95;14.43;;;10.70;99.90;;;;;;4972101;28;20054;-83
2022/05/25 05:24:27;;;;;;;24.75;13.15;;;10.80;99.90;;;;;;4972394;28;20054;-79
2022/05/25 05:26:53;;;;;;;27.30;13.82;;;10.70;99.90;;;;;;4957430;29;20321;-81
2022/05/25 05:29:19;;;;;;;27.73;14.05;;;10.80;99.90;;;;;;4958398;28;20384;-82
2022/05/25 05:31:45;;;;;;;30.80;13.37;;;10.90;99.90;;;;;;4957820;29;20082;-82
2022/05/25 05:34:12;;;;;;;26.17;12.25;;;10.90;99.90;;;;;;4957640;28;20149;-82
2022/05/25 05:36:51;;;;;;;28.48;14.05;;;11.00;99.90;;;;;;4956339;29;20467;-81
2022/05/25 05:39:19;;;;;;;28.10;13.60;;;11.00;99.90;;;;;;4956396;29;20373;-81
2022/05/25 05:42:05;;;;;;;29.20;14.35;;;11.10;99.90;;;;;;4957618;29;20055;-80
2022/05/25 05:44:36;;;;;;;27.45;13.73;;;11.10;99.90;;;;;;4957488;28;20039;-80
2022/05/25 05:47:07;;;;;;;29.15;14.52;;;11.30;99.90;;;;;;4957254;29;20047;-80
2022/05/25 05:49:34;;;;;;;31.23;14.10;;;11.30;99.90;;;;;;4958761;29;20047;-79
2022/05/25 05:52:00;;;;;;;27.15;14.23;;;11.30;99.90;;;;;;4956893;29;20152;-81
2022/05/25 05:54:26;;;;;;;30.65;14.63;;;11.40;99.90;;;;;;4956841;28;20134;-82
2022/05/25 05:56:52;;;;;;;27.02;14.55;;;11.50;99.90;;;;;;4955995;28;20184;-77
2022/05/25 05:59:18;;;;;;;31.35;14.80;;;11.50;99.90;;;;;;4956373;28;20044;-79
2022/05/25 06:01:45;;;;;;;30.67;15.52;;;11.70;99.90;;;;;;4956957;29;20047;-80
2022/05/25 06:04:11;;;;;;;;;;;11.70;99.90;;;;;;4957460;28;20058;-82
2022/05/25 06:06:37;;;;;;;28.80;13.77;;;11.70;99.90;;;;;;4955610;29;19922;-82
2022/05/25 06:09:03;;;;;;;37.25;14.30;;;11.80;99.90;;;;;;4956943;29;20294;-80
2022/05/25 06:11:29;;;;;;;24.73;12.30;;;11.80;99.90;;;;;;4957609;29;20047;-81
2022/05/25 06:13:55;;;;;;;26.40;14.05;;;11.90;99.90;;;;;;4957780;28;20502;-81
2022/05/25 06:21:54;;;;;;;32.05;14.55;;;12.10;99.90;;;;;;4956543;28;20484;-82
2022/05/25 06:24:19;;;;;;;28.05;14.77;;;12.10;99.90;;;;;;4972232;28;20044;-81
2022/05/25 06:26:45;;;;;;;34.28;15.30;;;12.20;99.90;;;;;;4957318;28;20372;-81
2022/05/25 06:29:11;;;;;;;30.30;15.05;;;12.20;99.90;;;;;;4956663;28;20233;-82
2022/05/25 06:31:37;;;;;;;31.77;14.50;;;12.30;99.90;;;;;;4955731;29;20043;-83
2022/05/25 06:34:02;;;;;;;30.67;14.63;;;12.40;99.90;;;;;;4955567;29;20054;-81
2022/05/25 06:36:30;;;;;;;34.08;14.90;;;12.50;99.90;;;;;;4956341;29;20047;-82
2022/05/25 06:38:56;;;;;;;;;;;12.60;99.90;;;;;;4955701;29;20118;-82
2022/05/25 06:41:22;;;;;;;28.10;12.70;;;12.80;99.90;;;;;;4956382;28;19969;-84
2022/05/25 06:43:48;;;;;;;26.58;12.45;;;13.00;99.90;;;;;;4954656;29;20464;-81
2022/05/25 06:46:19;;;;;;;32.30;12.15;;;13.00;99.90;;;;;;4956673;29;20103;-81
2022/05/25 06:48:49;;;;;;;21.95;11.13;;;13.10;99.90;;;;;;4955254;29;20095;-82
2022/05/25 06:51:21;;;;;;;22.00;12.35;;;13.10;99.90;;;;;;4955676;29;20045;-86
2022/05/25 06:53:49;;;;;;;21.25;11.25;;;13.20;99.90;;;;;;4958422;28;20187;-83
2022/05/25 06:56:16;;;;;;;21.88;10.77;;;13.30;99.90;;;;;;4957931;28;20058;-80
2022/05/25 06:58:43;;;;;;;21.15;11.30;;;13.40;99.90;;;;;;4956205;28;20157;-85
2022/05/25 07:01:09;;;;;;;19.67;9.80;;;13.50;99.90;;;;;;4956172;28;20051;-80
2022/05/25 07:03:36;;;;;;;23.25;10.80;;;13.60;99.90;;;;;;4955750;29;20051;-82
2022/05/25 07:06:06;;;;;;;21.13;10.20;;;13.70;99.90;;;;;;4956406;28;20047;-83
2022/05/25 07:08:32;;;;;;;17.23;9.32;;;13.70;99.90;;;;;;4955393;28;20106;-81
2022/05/25 07:11:00;;;;;;;17.10;9.23;;;13.90;99.90;;;;;;4955797;28;20509;-81
2022/05/25 07:13:27;;;;;;;18.55;9.63;;;13.90;99.90;;;;;;4954449;29;20069;-81
2022/05/25 07:16:02;;;;;;;20.98;10.30;;;14.00;99.90;;;;;;4956806;29;20065;-82
2022/05/25 07:18:28;;;;;;;19.63;8.35;;;14.10;99.90;;;;;;4956466;28;20487;-83
2022/05/25 07:21:09;;;;;;;15.07;7.82;;;14.20;99.90;;;;;;4971912;28;20051;-83
2022/05/25 07:23:36;;;;;;;18.05;8.65;;;14.20;99.90;;;;;;4956411;28;20059;-81
2022/05/25 07:26:02;;;;;;;;;;;14.30;99.90;;;;;;4957480;29;20527;-79
2022/05/25 07:28:28;;;;;;;14.60;6.90;;;14.40;99.90;;;;;;4956214;28;19922;-80
2022/05/25 07:31:01;;;;;;;17.15;7.10;;;14.50;99.90;;;;;;4955817;29;20039;-82
2022/05/25 07:33:27;;;;;;;15.00;6.90;;;14.50;99.90;;;;;;4954424;29;20138;-81
2022/05/25 07:35:53;;;;;;;14.25;6.40;;;14.50;99.90;;;;;;4954588;28;20054;-80
2022/05/25 07:38:19;;;;;;;11.82;6.68;;;14.60;99.90;;;;;;4956674;29;20047;-85
2022/05/25 07:40:46;;;;;;;16.05;7.97;;;14.70;99.90;;;;;;4972991;28;20334;-83
2022/05/25 07:43:15;;;;;;;15.13;6.93;;;14.90;99.90;;;;;;4974313;28;20134;-82
2022/05/25 07:45:44;;;;;;;15.20;6.43;;;15.00;99.90;;;;;;4957885;29;20065;-80
2022/05/25 07:48:09;;;;;;;15.63;6.20;;;15.20;99.90;;;;;;4958964;28;20042;-79
2022/05/25 07:50:35;;;;;;;13.35;6.78;;;15.30;99.90;;;;;;4957880;29;20055;-81
2022/05/25 07:53:02;;;;;;;14.68;6.97;;;15.30;99.90;;;;;;4957114;28;20260;-78
2022/05/25 07:55:28;;;;;;;10.27;5.90;;;15.40;99.90;;;;;;4955270;29;20375;-77
2022/05/25 07:57:54;;;;;;;14.93;7.30;;;15.50;99.90;;;;;;4955331;28;20055;-79
2022/05/25 08:00:24;;;;;;;13.65;6.75;;;15.20;99.90;;;;;;4970504;28;20109;-81
2022/05/25 08:05:44;;;;;;;14.30;6.47;;;15.40;99.90;;;;;;4957141;28;20135;-79
2022/05/25 08:08:17;;;;;;;17.70;6.90;;;15.50;99.90;;;;;;4973434;28;20055;-81
2022/05/25 08:10:46;;;;;;;12.52;5.18;;;15.60;99.90;;;;;;4956948;28;20152;-78
2022/05/25 08:13:16;;;;;;;10.02;5.43;;;15.80;99.90;;;;;;4972020;28;20126;-82
2022/05/25 08:15:43;;;;;;;14.35;5.90;;;15.90;99.90;;;;;;4970588;28;20043;-78
2022/05/25 08:18:13;;;;;;;11.00;5.60;;;15.90;99.90;;;;;;4954855;28;20075;-76
2022/05/25 08:20:39;;;;;;;12.38;6.50;;;16.00;99.90;;;;;;4955811;28;20095;-79
2022/05/25 08:23:10;;;;;;;10.73;6.47;;;16.10;99.90;;;;;;4958032;28;20090;-82
2022/05/25 08:25:36;;;;;;;11.52;5.88;;;16.20;99.90;;;;;;4957042;28;20074;-83
2022/05/25 08:28:03;;;;;;;15.03;6.00;;;16.30;99.90;;;;;;4958857;29;20078;-82
2022/05/25 08:30:30;;;;;;;10.77;5.05;;;16.30;99.90;;;;;;4973806;28;20049;-81
2022/05/25 08:32:56;;;;;;;;;;;16.30;99.90;;;;;;4958474;29;20051;-80
2022/05/25 08:35:22;;;;;;;11.73;4.73;;;16.20;99.90;;;;;;4972864;28;20013;-81
2022/05/25 08:37:48;;;;;;;8.97;5.23;;;16.40;99.90;;;;;;4958289;29;20083;-83
2022/05/25 08:40:18;;;;;;;9.30;5.20;;;16.50;99.90;;;;;;4959626;28;20122;-83
2022/05/25 08:42:57;;;;;;;12.55;5.85;;;16.60;99.90;;;;;;4962419;29;20061;-79
2022/05/25 08:45:27;;;;;;;10.05;5.13;;;16.80;99.90;;;;;;4963904;28;20091;-82
2022/05/25 08:47:57;;;;;;;12.43;5.93;;;17.00;99.90;;;;;;4965200;29;20102;-82
2022/05/25 08:50:24;;;;;;;8.43;4.15;;;17.10;99.90;;;;;;4967068;28;20055;-78
2022/05/25 08:52:54;;;;;;;6.30;3.75;;;17.40;99.90;;;;;;4951046;29;20059;-81
2022/05/25 08:55:51;;;;;;;7.40;3.65;;;17.60;99.90;;;;;;4958840;29;20047;-80
2022/05/25 08:58:19;;;;;;;9.00;3.17;;;17.80;99.90;;;;;;4951899;28;20115;-83
2022/05/25 09:00:47;;;;;;;8.25;3.88;;;17.80;99.90;;;;;;4972792;28;20050;-82
2022/05/25 09:03:29;;;;;;;10.45;4.07;;;17.90;99.90;;;;;;4957733;29;20070;-78
2022/05/25 09:06:05;;;;;;;9.23;4.50;;;17.90;99.90;;;;;;4957482;28;20093;-66
2022/05/25 09:08:49;;;;;;;8.75;3.88;;;18.30;99.90;;;;;;4956262;29;20055;-68
2022/05/25 09:11:19;;;;;;;8.70;4.70;;;18.20;99.90;;;;;;4971734;28;20428;-84
2022/05/25 09:14:12;;;;;;;9.43;5.10;;;18.00;99.90;;;;;;4956900;29;20475;-82
2022/05/25 09:16:38;;;;;;;11.02;5.80;;;18.10;99.90;;;;;;4958000;29;20444;-81
2022/05/25 09:19:17;;;;;;;10.10;5.13;;;18.30;99.90;;;;;;4958390;28;20088;-83
2022/05/25 09:22:06;;;;;;;12.75;4.40;;;18.30;99.90;;;;;;4958476;29;20122;-83
2022/05/25 09:24:33;;;;;;;10.32;5.20;;;18.30;99.90;;;;;;4941542;29;20051;-81
2022/05/25 09:27:01;;;;;;;6.25;4.13;;;18.20;99.90;;;;;;4958053;28;20411;-81
2022/05/25 09:29:27;;;;;;;10.05;4.85;;;18.20;99.90;;;;;;4957921;29;20384;-85
2022/05/25 09:31:58;;;;;;;7.55;3.78;;;18.40;99.90;;;;;;4956554;28;20047;-81
2022/05/25 09:34:49;;;;;;;9.45;3.80;;;18.30;99.90;;;;;;4958302;29;20051;-85
2022/05/25 09:37:32;;;;;;;6.90;3.30;;;18.20;99.90;;;;;;4959716;29;20369;-80
2022/05/25 09:40:04;;;;;;;7.15;3.40;;;18.30;99.90;;;;;;4957475;29;20051;-84
2022/05/25 09:42:34;;;;;;;7.97;4.05;;;18.40;99.90;;;;;;4957865;29;20051;-82
2022/05/25 09:45:00;;;;;;;5.78;3.65;;;18.30;99.90;;;;;;4958635;28;20057;-85
2022/05/25 09:47:38;;;;;;;5.70;3.55;;;18.50;99.90;;;;;;4958430;28;20051;-86
2022/05/25 09:50:06;;;;;;;6.32;4.00;;;18.60;99.90;;;;;;4956886;29;20054;-84
2022/05/25 09:52:43;;;;;;;7.75;4.00;;;18.80;99.90;;;;;;4956831;29;20058;-82
2022/05/25 09:55:28;;;;;;;9.65;4.90;;;18.50;99.90;;;;;;4958588;28;20051;-85
2022/05/25 09:58:04;;;;;;;9.98;4.57;;;18.40;99.90;;;;;;4941611;29;20054;-84
2022/05/25 10:00:33;;;;;;;8.23;5.38;;;18.50;99.90;;;;;;4957814;29;20047;-85
2022/05/25 10:03:10;;;;;;;8.85;4.80;;;18.60;99.90;;;;;;4958960;29;20114;-84
2022/05/25 10:05:57;;;;;;;8.02;3.95;;;18.80;99.90;;;;;;4958215;28;20058;-81
2022/05/25 10:08:36;;;;;;;7.53;4.05;;;18.90;99.90;;;;;;4958192;28;20126;-84
2022/05/25 10:11:13;;;;;;;10.20;4.22;;;18.80;99.90;;;;;;4958338;28;20067;-84
2022/05/25 10:13:42;;;;;;;5.55;3.10;;;19.00;99.90;;;;;;4973008;28;20138;-79
2022/05/25 10:16:41;;;;;;;9.63;4.68;;;19.30;99.90;;;;;;4972788;28;20051;-84
2022/05/25 10:19:14;;;;;;;6.97;4.57;;;19.50;99.50;;;;;;4945791;28;20059;-82
2022/05/25 10:21:56;;;;;;;8.43;5.50;;;19.20;99.50;;;;;;4972031;28;20055;-81
2022/05/25 10:24:44;;;;;;;8.48;5.22;;;19.10;99.70;;;;;;4957760;29;20047;-82
2022/05/25 10:27:35;;;;;;;8.57;4.47;;;19.00;99.90;;;;;;4959950;28;20476;-83
2022/05/25 10:38:42;;;;;;;8.18;5.53;;;18.60;99.90;;;;;;4956374;29;20118;-81
2022/05/25 10:44:10;;;;;;;8.88;5.13;;;19.00;99.90;;;;;;4957633;28;20051;-79
2022/05/25 10:46:39;;;;;;;12.07;5.50;;;19.10;99.90;;;;;;4957085;29;20047;-82
2022/05/25 10:49:22;;;;;;;8.98;5.50;;;19.20;99.90;;;;;;4972192;28;20040;-83
2022/05/25 10:51:54;;;;;;;11.18;5.68;;;19.30;99.90;;;;;;4958281;28;20141;-82
2022/05/25 10:54:45;;;;;;;8.60;5.43;;;19.60;99.60;;;;;;4958354;28;20400;-83
2022/05/25 10:57:13;;;;;;;11.68;4.20;;;19.60;99.90;;;;;;4957452;29;20098;-83
2022/05/25 11:00:04;;;;;;;9.10;4.78;;;19.80;99.10;;;;;;4958491;28;20063;-83
2022/05/25 11:03:08;;;;;;;10.05;4.30;;;20.00;96.80;;;;;;4958621;29;20108;-84
2022/05/25 11:05:38;;;;;;;5.93;3.88;;;20.20;97.70;;;;;;4957057;28;20050;-80
2022/05/25 11:08:33;;;;;;;12.23;5.22;;;20.50;97.40;;;;;;4958042;29;20062;-82
2022/05/25 11:11:18;;;;;;;10.48;5.80;;;20.40;95.80;;;;;;4957048;29;20066;-80
2022/05/25 11:14:29;;;;;;;13.25;5.97;;;20.00;95.80;;;;;;4957394;28;20433;-81
2022/05/25 11:17:38;;;;;;;8.73;5.65;;;20.30;96.30;;;;;;4956285;29;20472;-81
2022/05/25 11:20:07;;;;;;;11.52;5.55;;;20.10;95.10;;;;;;4955794;29;20065;-79
2022/05/25 11:22:40;;;;;;;8.73;6.55;;;20.10;93.80;;;;;;4956487;29;20054;-83
2022/05/25 11:25:16;;;;;;;10.75;7.07;;;20.00;94.60;;;;;;4957787;29;20133;-79
2022/05/25 11:28:10;;;;;;;12.23;6.35;;;19.70;95.90;;;;;;4954934;29;20055;-81
2022/05/25 11:30:42;;;;;;;11.07;6.07;;;19.70;95.30;;;;;;4955751;29;20073;-82
2022/05/25 11:33:38;;;;;;;9.90;5.68;;;19.80;95.90;;;;;;4956110;28;20047;-78
2022/05/25 11:36:11;;;;;;;;;;;20.00;94.30;;;;;;4970742;28;20114;-82
2022/05/25 11:38:42;;;;;;;10.35;6.05;;;20.10;93.30;;;;;;4940105;29;19922;-82
2022/05/25 11:41:23;;;;;;;11.43;5.63;;;19.80;93.30;;;;;;4957400;29;20043;-78
2022/05/25 11:44:00;;;;;;;10.35;6.03;;;19.90;93.00;;;;;;4957050;28;20049;-80
2022/05/25 11:46:47;;;;;;;10.60;6.18;;;19.20;92.10;;;;;;4955418;29;20130;-77
2022/05/25 11:49:35;;;;;;;10.35;6.60;;;19.00;93.10;;;;;;4954607;29;20083;-81
2022/05/25 11:52:38;;;;;;;12.75;6.68;;;18.50;92.40;;;;;;4970892;28;20122;-81
2022/05/25 11:55:06;;;;;;;14.60;6.53;;;18.60;93.20;;;;;;4955005;29;20054;-80
2022/05/25 11:57:36;;;;;;;7.57;4.80;;;18.30;93.00;;;;;;4969516;28;20070;-78
2022/05/25 12:00:26;;;;;;;10.45;5.22;;;18.30;93.30;;;;;;4955070;28;20400;-80
2022/05/25 12:03:10;;;;;;;11.25;5.05;;;18.30;92.20;;;;;;4944464;28;20059;-78
2022/05/25 12:06:00;;;;;;;10.70;4.78;;;18.40;92.30;;;;;;4953750;28;20366;-79
2022/05/25 12:08:48;;;;;;;9.90;4.53;;;18.20;91.70;;;;;;4954467;29;20047;-79
2022/05/25 12:11:35;;;;;;;6.95;3.90;;;18.20;92.20;;;;;;4955242;29;20431;-80
2022/05/25 12:14:29;;;;;;;10.02;5.07;;;18.20;92.10;;;;;;4955964;28;20082;-78
2022/05/25 12:17:10;;;;;;;9.02;5.18;;;18.40;93.60;;;;;;4956397;29;20082;-79
2022/05/25 12:19:37;;;;;;;11.73;5.50;;;18.40;94.80;;;;;;4956660;28;20388;-81
2022/05/25 12:22:11;;;;;;;8.70;5.50;;;18.30;97.00;;;;;;4954228;29;20062;-79
2022/05/25 12:24:43;;;;;;;8.43;5.43;;;18.40;96.40;;;;;;4955628;29;20117;-82
2022/05/25 12:27:17;;;;;;;9.52;4.97;;;18.40;96.80;;;;;;4954596;28;20039;-82
2022/05/25 12:29:47;;;;;;;11.40;4.50;;;18.60;96.50;;;;;;4955136;29;20103;-79
2022/05/25 12:32:13;;;;;;;10.23;5.10;;;18.80;96.00;;;;;;4953252;29;20070;-81
2022/05/25 12:34:46;;;;;;;10.02;4.32;;;19.10;95.60;;;;;;4954941;29;20084;-81
2022/05/25 12:37:17;;;;;;;9.32;4.85;;;19.30;95.30;;;;;;4937247;29;20058;-81
2022/05/25 12:39:43;;;;;;;10.70;4.38;;;19.50;95.10;;;;;;4955584;29;20134;-79
2022/05/25 12:42:24;;;;;;;12.67;4.20;;;19.60;95.30;;;;;;4954585;28;20093;-79
2022/05/25 12:50:47;;;;;;;9.95;3.45;;;20.00;93.30;;;;;;4953974;28;20047;-76
2022/05/25 12:53:28;;;;;;;7.05;2.70;;;20.10;93.30;;;;;;4954199;28;20105;-78
2022/05/25 12:55:58;;;;;;;5.65;1.50;;;19.80;93.20;;;;;;4952708;29;20456;-77
2022/05/25 12:58:54;;;;;;;3.95;1.10;;;19.90;91.60;;;;;;4968963;28;20055;-78
2022/05/25 13:01:23;;;;;;;;;;;20.00;90.70;;;;;;4949995;28;20244;-77
2022/05/25 13:03:48;;;;;;;4.13;0.88;;;20.10;89.80;;;;;;4954315;28;19922;-79
2022/05/25 13:06:17;;;;;;;5.33;0.60;;;20.20;87.20;;;;;;4954860;28;20380;-79
2022/05/25 13:09:00;;;;;;;5.55;1.08;;;20.30;87.20;;;;;;4957142;28;20385;-80
2022/05/25 13:11:44;;;;;;;6.47;0.77;;;20.30;87.40;;;;;;4957254;28;20043;-79
2022/05/25 13:14:31;;;;;;;5.80;0.77;;;20.50;86.60;;;;;;4957174;29;20082;-78
2022/05/25 13:16:59;;;;;;;3.58;0.80;;;20.60;85.10;;;;;;4971989;28;20087;-77
2022/05/25 13:19:39;;;;;;;5.38;0.90;;;20.80;85.50;;;;;;4955466;29;20142;-81
2022/05/25 13:22:29;;;;;;;4.38;0.70;;;20.80;85.40;;;;;;4939877;29;20515;-80
2022/05/25 13:24:54;;;;;;;5.43;0.90;;;20.80;83.30;;;;;;4957414;29;20047;-79
2022/05/25 13:27:58;;;;;;;3.77;1.10;;;20.60;81.00;;;;;;4958166;28;20161;-81
2022/05/25 13:30:49;;;;;;;4.13;0.68;;;20.70;81.60;;;;;;4957496;28;20051;-77
2022/05/25 13:33:15;;;;;;;7.13;0.80;;;20.50;79.40;;;;;;4956018;29;20094;-80
2022/05/25 13:35:51;;;;;;;7.20;0.60;;;20.50;79.50;;;;;;4956556;28;20055;-80
2022/05/25 13:38:23;;;;;;;5.72;0.88;;;20.50;80.50;;;;;;4957491;29;20051;-78
2022/05/25 13:41:03;;;;;;;3.95;0.70;;;20.50;80.40;;;;;;4957184;28;20090;-80
2022/05/25 13:43:57;;;;;;;2.40;0.50;;;20.50;80.20;;;;;;4957647;29;20086;-79
2022/05/25 13:46:31;;;;;;;7.85;0.80;;;20.40;80.70;;;;;;4972439;28;20048;-80